Terminal Aerodrome Forecast
Issued by NWS Cleveland, OH

Home | Current Version | Previous Version | Graphics & Text | Print | Product List | Glossary On
Versions: 1 2 3 4 5 6 7 8 9 10 11 12 13 14 15 16 17 18 19 20 21 22
000
FTUS41 KCLE 171300 AAA
TAFYNG
TAF AMD
KYNG 171301Z 1713/1812 21012KT P6SM BKN018
      TEMPO 1713/1716 SCT020
     FM171600 20014KT P6SM BKN025
     FM171900 21014KT P6SM BKN050
     FM180400 26012KT P6SM VCSH BKN025 OVC050=

USA.gov is the U.S. government's official web portal to all federal, state and local government web resources and services.